createdAt,value
2022-08-25T00:00:17.663Z,100027.53
2022-08-25T00:02:55.355Z,100030.63
2022-08-25T00:05:24.016Z,100023.91
2022-08-25T00:07:51.797Z,100022.81
2022-08-25T00:10:20.618Z,100019.66
2022-08-25T00:12:48.251Z,100023.59
2022-08-25T00:15:15.947Z,100025.44
2022-08-25T00:17:43.606Z,100028.56
2022-08-25T00:20:11.596Z,100025.38
2022-08-25T00:22:39.632Z,100032.03
2022-08-25T00:25:07.372Z,100027.81
2022-08-25T00:27:35.151Z,100023.63
2022-08-25T00:30:03.171Z,100032.78
2022-08-25T00:32:30.827Z,100023.84
2022-08-25T00:34:58.583Z,100024.03
2022-08-25T00:37:26.299Z,100030.47
2022-08-25T00:39:57.238Z,100024.41
2022-08-25T00:42:25.019Z,100022.72
2022-08-25T00:44:53.034Z,100028.13
2022-08-25T00:47:20.848Z,100030.84
2022-08-25T00:49:48.794Z,100027.31
2022-08-25T00:52:16.665Z,100028.72
2022-08-25T00:54:44.262Z,100036.38
2022-08-25T00:57:13.052Z,100037.63
2022-08-25T00:59:40.937Z,100040.06
2022-08-25T01:02:13.703Z,100041.66
2022-08-25T01:04:45.849Z,100035.75
2022-08-25T01:07:17.789Z,100029.03
2022-08-25T01:09:46.005Z,100031.09
2022-08-25T01:12:13.683Z,100032.31
2022-08-25T01:14:41.289Z,100022.84
2022-08-25T01:17:09.710Z,100011.59
2022-08-25T01:19:37.775Z,100033.44
2022-08-25T01:22:05.815Z,100025.66
2022-08-25T01:24:33.529Z,100027.09
2022-08-25T01:27:01.599Z,100034.59
2022-08-25T01:29:29.616Z,100034.28
2022-08-25T01:31:58.192Z,100034.47
2022-08-25T01:34:25.884Z,100034.00
2022-08-25T01:36:53.731Z,100033.34
2022-08-25T01:39:21.817Z,100034.75
2022-08-25T01:41:51.477Z,100034.31
2022-08-25T01:44:19.396Z,100035.69
2022-08-25T01:46:47.116Z,100031.88
2022-08-25T01:49:15.267Z,100031.22
2022-08-25T01:51:42.905Z,100026.16
2022-08-25T01:54:10.508Z,100033.66
2022-08-25T01:56:38.276Z,100027.75
2022-08-25T01:59:05.951Z,100032.31
2022-08-25T02:01:33.931Z,100032.69
2022-08-25T02:04:01.665Z,100036.63
2022-08-25T02:06:30.155Z,100025.94
2022-08-25T02:08:58.611Z,100030.88
2022-08-25T02:11:26.269Z,100024.97
2022-08-25T02:13:54.003Z,100023.31
2022-08-25T02:16:21.891Z,100024.50
2022-08-25T02:18:49.847Z,100023.22
2022-08-25T02:21:17.492Z,100025.28
2022-08-25T02:23:45.148Z,100026.47
2022-08-25T02:26:12.755Z,100017.72
2022-08-25T02:28:40.532Z,100019.75
2022-08-25T02:31:08.290Z,100022.66
2022-08-25T02:33:35.947Z,100017.41
2022-08-25T02:36:03.750Z,100027.59
2022-08-25T02:38:31.409Z,100018.78
2022-08-25T02:40:59.415Z,100019.16
2022-08-25T02:43:27.026Z,100013.28
2022-08-25T02:45:55.734Z,100011.78
2022-08-25T02:48:23.456Z,100008.59
2022-08-25T02:50:51.781Z,100010.81
2022-08-25T02:53:19.854Z,100015.59
2022-08-25T02:55:47.981Z,100012.41
2022-08-25T02:58:15.620Z,100012.78
2022-08-25T03:00:43.848Z,100013.13
2022-08-25T03:03:11.500Z,100010.78
2022-08-25T03:05:39.112Z,100008.63
2022-08-25T03:08:06.910Z,100011.03
2022-08-25T03:10:35.199Z,100002.44
2022-08-25T03:13:02.807Z,100004.00
2022-08-25T03:15:30.734Z,100006.19
2022-08-25T03:17:59.854Z,100002.38
2022-08-25T03:20:28.043Z,100006.44
2022-08-25T03:22:55.692Z,100003.06
2022-08-25T03:25:46.200Z,100003.25
2022-08-25T03:28:14.884Z,99999.03
2022-08-25T03:30:42.513Z,99992.97
2022-08-25T03:33:10.243Z,99991.31
2022-08-25T03:35:37.913Z,99989.63
2022-08-25T03:38:05.767Z,99979.84
2022-08-25T03:40:34.080Z,99976.44
2022-08-25T03:43:01.850Z,99978.50
2022-08-25T03:45:29.555Z,99975.13
2022-08-25T03:47:57.275Z,99970.75
2022-08-25T03:50:25.261Z,99979.91
2022-08-25T03:52:53.919Z,99975.69
2022-08-25T03:55:21.585Z,99979.41
2022-08-25T03:57:49.430Z,99982.28
2022-08-25T04:00:18.314Z,99979.75
2022-08-25T04:02:46.388Z,99984.34
2022-08-25T04:05:14.211Z,99978.25
2022-08-25T04:07:43.525Z,99983.00
2022-08-25T04:10:11.497Z,99975.06
2022-08-25T04:12:39.108Z,99975.06
2022-08-25T04:15:06.704Z,99971.69
2022-08-25T04:17:34.382Z,99974.59
2022-08-25T04:20:02.273Z,99975.78
2022-08-25T04:22:31.239Z,99978.19
2022-08-25T04:25:01.317Z,99974.50
2022-08-25T04:27:29.053Z,99982.47
2022-08-25T04:29:57.058Z,99988.22
2022-08-25T04:32:24.777Z,99975.91
2022-08-25T04:34:52.591Z,99975.44
2022-08-25T04:37:20.250Z,99965.63
2022-08-25T04:39:48.289Z,99967.13
2022-08-25T04:42:15.974Z,99957.47
2022-08-25T04:44:43.765Z,99961.84
2022-08-25T04:47:12.437Z,99971.75
2022-08-25T04:49:40.110Z,99962.09
2022-08-25T04:52:14.439Z,99963.25
2022-08-25T04:54:42.625Z,99960.00
2022-08-25T04:57:10.474Z,99956.59
2022-08-25T04:59:38.084Z,99957.72
2022-08-25T05:02:06.798Z,99958.56
2022-08-25T05:04:34.680Z,99961.25
2022-08-25T05:07:02.716Z,99966.50
2022-08-25T05:09:32.684Z,99969.03
2022-08-25T05:12:00.630Z,99972.53
2022-08-25T05:14:28.333Z,99970.31
2022-08-25T05:16:57.410Z,99969.13
2022-08-25T05:19:25.425Z,99974.00
2022-08-25T05:21:53.987Z,99966.38
2022-08-25T05:24:22.341Z,99974.78
2022-08-25T05:26:50.258Z,99974.91
2022-08-25T05:29:17.943Z,99974.38
2022-08-25T05:31:49.995Z,99981.13
2022-08-25T05:34:19.137Z,99966.38
2022-08-25T05:36:47.074Z,99964.63
2022-08-25T05:39:14.822Z,99962.41
2022-08-25T05:41:42.413Z,99960.44
2022-08-25T05:44:10.134Z,99954.78
2022-08-25T05:46:38.187Z,99956.38
2022-08-25T05:49:05.841Z,99950.69
2022-08-25T05:51:34.255Z,99956.66
2022-08-25T05:54:02.087Z,99952.97
2022-08-25T05:56:30.031Z,99959.41
2022-08-25T05:58:57.664Z,99953.94
2022-08-25T06:01:43.566Z,99961.41
2022-08-25T06:04:12.983Z,99947.63
2022-08-25T06:06:40.972Z,99947.75
2022-08-25T06:09:08.954Z,99944.19
2022-08-25T06:11:36.710Z,99938.06
2022-08-25T06:14:04.865Z,99935.69
2022-08-25T06:16:33.217Z,99939.34
2022-08-25T06:19:01.257Z,99939.25
2022-08-25T06:21:29.334Z,99926.47
2022-08-25T06:23:57.049Z,99930.53
2022-08-25T06:26:25.030Z,99934.63
2022-08-25T06:28:52.729Z,99932.22
2022-08-25T06:31:20.596Z,99936.25
2022-08-25T06:33:48.416Z,99939.94
2022-08-25T06:36:16.269Z,99934.94
2022-08-25T06:38:43.894Z,99929.78
2022-08-25T06:41:12.767Z,99940.28
2022-08-25T06:43:45.048Z,99941.59
2022-08-25T06:46:16.095Z,99933.88
2022-08-25T06:48:43.890Z,99942.88
2022-08-25T06:51:13.860Z,99943.50
2022-08-25T06:53:41.975Z,99936.38
2022-08-25T06:56:09.867Z,99936.81
2022-08-25T06:58:37.580Z,99940.78
2022-08-25T07:01:05.265Z,99944.75
2022-08-25T07:03:33.695Z,99944.09
2022-08-25T07:06:01.312Z,99934.19
2022-08-25T07:08:28.988Z,99944.22
2022-08-25T07:10:56.959Z,99943.34
2022-08-25T07:13:26.829Z,99946.47
2022-08-25T07:15:54.554Z,99946.63
2022-08-25T07:18:22.972Z,99945.72
2022-08-25T07:20:52.225Z,99942.28
2022-08-25T07:23:19.881Z,99944.75
2022-08-25T07:25:48.078Z,99950.63
2022-08-25T07:28:15.784Z,99956.03
2022-08-25T07:30:43.453Z,99943.34
2022-08-25T07:33:11.807Z,99941.56
2022-08-25T07:35:40.915Z,99953.66
2022-08-25T07:38:13.067Z,99948.53
2022-08-25T07:40:45.941Z,99948.91
2022-08-25T07:43:21.046Z,99945.44
2022-08-25T07:45:49.115Z,99934.19
2022-08-25T07:48:19.827Z,99938.69
2022-08-25T07:50:47.607Z,99932.88
2022-08-25T07:53:15.366Z,99937.56
2022-08-25T07:55:45.103Z,99936.84
2022-08-25T07:58:15.542Z,99938.38
2022-08-25T08:00:43.456Z,99929.75
2022-08-25T08:03:19.909Z,99932.06
2022-08-25T08:05:59.933Z,99919.19
2022-08-25T08:08:27.951Z,99917.47
2022-08-25T08:11:04.597Z,99915.13
2022-08-25T08:13:34.859Z,99910.03
2022-08-25T08:16:05.707Z,99910.66
2022-08-25T08:18:33.514Z,99911.72
2022-08-25T08:21:01.585Z,99914.25
2022-08-25T08:23:30.045Z,99920.75
2022-08-25T08:25:58.010Z,99918.28
2022-08-25T08:28:28.239Z,99924.00
2022-08-25T08:30:56.396Z,99919.81
2022-08-25T08:33:25.337Z,99920.88
2022-08-25T08:35:53.065Z,99921.34
2022-08-25T08:38:22.215Z,99916.63
2022-08-25T08:41:14.920Z,99916.00
2022-08-25T08:43:43.109Z,99910.41
2022-08-25T08:46:11.387Z,99906.44
2022-08-25T08:48:39.291Z,99900.31
2022-08-25T08:51:10.051Z,99897.72
2022-08-25T08:53:37.821Z,99896.00
2022-08-25T08:56:05.970Z,99894.78
2022-08-25T08:58:34.373Z,99884.44
2022-08-25T09:01:03.271Z,99877.75
2022-08-25T09:03:31.275Z,99883.66
2022-08-25T09:05:59.042Z,99877.47
2022-08-25T09:08:27.978Z,99873.81
2022-08-25T09:10:55.785Z,99875.63
2022-08-25T09:13:26.301Z,99869.69
2022-08-25T09:16:23.389Z,99876.50
2022-08-25T09:18:59.328Z,99872.97
2022-08-25T09:21:27.223Z,99870.59
2022-08-25T09:23:55.074Z,99862.22
2022-08-25T09:26:22.743Z,99871.91
2022-08-25T09:28:51.081Z,99856.28
2022-08-25T09:31:19.120Z,99863.59
2022-08-25T09:33:47.051Z,99857.91
2022-08-25T09:36:14.752Z,99853.31
2022-08-25T09:38:42.670Z,99850.63
2022-08-25T09:41:12.197Z,99845.50
2022-08-25T09:43:40.128Z,99847.66
2022-08-25T09:46:08.237Z,99841.69
2022-08-25T09:48:40.676Z,99843.16
2022-08-25T09:51:08.895Z,99833.19
2022-08-25T09:53:37.555Z,99837.88
2022-08-25T09:56:09.087Z,99829.59
2022-08-25T09:58:36.749Z,99820.59
2022-08-25T10:01:04.849Z,99818.63
2022-08-25T10:03:36.781Z,99813.69
2022-08-25T10:06:05.208Z,99804.84
2022-08-25T10:08:33.211Z,99806.69
2022-08-25T10:11:01.280Z,99807.38
2022-08-25T10:13:29.032Z,99808.53
2022-08-25T10:15:57.100Z,99789.75
2022-08-25T10:18:26.106Z,99793.06
2022-08-25T10:20:54.421Z,99779.63
2022-08-25T10:23:22.384Z,99781.56
2022-08-25T10:25:57.731Z,99789.00
2022-08-25T10:28:28.498Z,99788.19
2022-08-25T10:30:56.579Z,99772.25
2022-08-25T10:33:24.350Z,99768.63
2022-08-25T10:35:52.115Z,99759.84
2022-08-25T10:38:21.710Z,99761.72
2022-08-25T10:40:49.998Z,99760.28
2022-08-25T10:43:19.100Z,99760.50
2022-08-25T10:45:46.479Z,99762.75
2022-08-25T10:48:14.299Z,99749.66
2022-08-25T10:50:45.505Z,99741.53
2022-08-25T10:53:13.908Z,99746.88
2022-08-25T10:55:44.740Z,99751.56
2022-08-25T10:58:13.073Z,99743.84
2022-08-25T11:00:47.041Z,99746.69
2022-08-25T11:03:16.073Z,99737.78
2022-08-25T11:05:45.624Z,99732.47
2022-08-25T11:08:13.320Z,99739.50
2022-08-25T11:10:42.033Z,99718.69
2022-08-25T11:13:11.364Z,99724.03
2022-08-25T11:15:41.421Z,99720.44
2022-08-25T11:18:17.957Z,99725.47
2022-08-25T11:20:46.865Z,99715.88
2022-08-25T11:23:16.908Z,99717.41
2022-08-25T11:25:44.651Z,99721.31
2022-08-25T11:28:12.374Z,99719.94
2022-08-25T11:30:40.797Z,99713.38
2022-08-25T11:33:08.560Z,99706.88
2022-08-25T11:35:36.518Z,99717.91
2022-08-25T11:38:06.184Z,99709.66
2022-08-25T11:40:34.419Z,99704.59
2022-08-25T11:43:02.276Z,99711.03
2022-08-25T11:45:30.386Z,99713.47
2022-08-25T11:47:58.047Z,99707.50
2022-08-25T11:50:30.085Z,99713.50
2022-08-25T11:52:58.379Z,99709.34
2022-08-25T11:55:29.719Z,99709.44
2022-08-25T11:57:59.313Z,99712.66
2022-08-25T12:00:27.263Z,99703.13
2022-08-25T12:02:58.373Z,99702.25
2022-08-25T12:05:28.608Z,99695.59
2022-08-25T12:08:10.409Z,99700.41
2022-08-25T12:10:38.027Z,99692.59
2022-08-25T12:13:10.263Z,99694.13
2022-08-25T12:15:38.267Z,99692.78
2022-08-25T12:18:07.478Z,99685.19
2022-08-25T12:20:36.623Z,99675.78
2022-08-25T12:23:04.330Z,99671.56
2022-08-25T12:25:33.821Z,99664.41
2022-08-25T12:28:02.457Z,99677.25
2022-08-25T12:30:36.942Z,99678.34
2022-08-25T12:33:04.727Z,99671.88
2022-08-25T12:35:32.454Z,99666.16
2022-08-25T12:38:00.569Z,99661.22
2022-08-25T12:40:29.239Z,99671.25
2022-08-25T12:42:56.989Z,99666.19
2022-08-25T12:45:24.929Z,99663.88
2022-08-25T12:47:52.857Z,99665.44
2022-08-25T12:50:20.810Z,99648.84
2022-08-25T12:52:48.510Z,99659.69
2022-08-25T12:55:16.714Z,99659.91
2022-08-25T12:57:44.413Z,99656.47
2022-08-25T13:00:16.525Z,99652.25
2022-08-25T13:02:52.230Z,99647.16
2022-08-25T13:05:33.538Z,99644.34
2022-08-25T13:08:02.431Z,99643.78
2022-08-25T13:10:32.299Z,99633.47
2022-08-25T13:12:59.996Z,99633.66
2022-08-25T13:15:29.699Z,99642.03
2022-08-25T13:17:57.824Z,99626.75
2022-08-25T13:20:25.880Z,99631.47
2022-08-25T13:22:57.355Z,99629.44
2022-08-25T13:25:27.130Z,99625.22
2022-08-25T13:28:00.368Z,99619.47
2022-08-25T13:30:28.719Z,99610.91
2022-08-25T13:32:56.804Z,99618.25
2022-08-25T13:35:28.940Z,99611.13
2022-08-25T13:37:59.177Z,99608.19
2022-08-25T13:40:27.446Z,99601.09
2022-08-25T13:42:56.215Z,99602.47
2022-08-25T13:45:25.327Z,99597.88
2022-08-25T13:47:55.698Z,99595.84
2022-08-25T13:50:41.196Z,99595.16
2022-08-25T13:53:11.585Z,99596.38
2022-08-25T13:55:50.862Z,99595.47
2022-08-25T13:58:24.882Z,99598.13
2022-08-25T14:01:00.525Z,99593.63
2022-08-25T14:03:30.077Z,99584.13
2022-08-25T14:05:58.993Z,99580.59
2022-08-25T14:08:27.118Z,99581.34
2022-08-25T14:10:56.551Z,99579.53
2022-08-25T14:13:26.863Z,99575.06
2022-08-25T14:15:58.560Z,99579.31
2022-08-25T14:18:26.897Z,99576.28
2022-08-25T14:20:55.341Z,99570.91
2022-08-25T14:23:24.252Z,99570.31
2022-08-25T14:25:52.231Z,99571.06
2022-08-25T14:28:20.063Z,99566.34
2022-08-25T14:30:47.903Z,99564.97
2022-08-25T14:33:15.695Z,99557.91
2022-08-25T14:35:43.406Z,99571.19
2022-08-25T14:38:11.429Z,99560.75
2022-08-25T14:40:39.700Z,99553.25
2022-08-25T14:43:09.769Z,99570.41
2022-08-25T14:45:37.934Z,99565.09
2022-08-25T14:48:10.449Z,99562.28
2022-08-25T14:50:41.148Z,99550.09
2022-08-25T14:53:09.818Z,99553.09
2022-08-25T14:55:39.712Z,99551.31
2022-08-25T14:58:07.587Z,99553.63
2022-08-25T15:00:36.351Z,99552.19
2022-08-25T15:03:04.727Z,99552.81
2022-08-25T15:05:32.630Z,99543.22
2022-08-25T15:08:14.432Z,99547.16
2022-08-25T15:10:43.356Z,99543.84
2022-08-25T15:13:11.581Z,99543.06
2022-08-25T15:15:39.276Z,99543.13
2022-08-25T15:18:20.888Z,99540.25
2022-08-25T15:20:49.906Z,99539.88
2022-08-25T15:23:17.909Z,99539.69
2022-08-25T15:25:46.025Z,99531.59
2022-08-25T15:28:13.829Z,99528.06
2022-08-25T15:30:45.835Z,99532.00
2022-08-25T15:33:13.679Z,99532.91
2022-08-25T15:35:41.394Z,99522.09
2022-08-25T15:38:09.927Z,99522.84
2022-08-25T15:40:39.934Z,99519.59
2022-08-25T15:43:07.742Z,99515.88
2022-08-25T15:45:36.562Z,99507.81
2022-08-25T15:48:06.922Z,99509.16
2022-08-25T15:50:38.708Z,99508.13
2022-08-25T15:53:08.437Z,99517.47
2022-08-25T15:55:38.532Z,99510.88
2022-08-25T15:58:08.709Z,99505.69
2022-08-25T16:00:37.795Z,99507.84
2022-08-25T16:03:08.066Z,99514.88
2022-08-25T16:05:36.141Z,99513.66
2022-08-25T16:08:05.220Z,99514.75
2022-08-25T16:10:34.584Z,99512.63
2022-08-25T16:13:04.920Z,99507.97
2022-08-25T16:15:33.242Z,99513.00
2022-08-25T16:18:01.476Z,99515.00
2022-08-25T16:20:32.851Z,99510.25
2022-08-25T16:23:02.935Z,99510.16
2022-08-25T16:25:31.938Z,99509.41
2022-08-25T16:27:59.786Z,99512.88
2022-08-25T16:30:27.580Z,99511.56
2022-08-25T16:32:55.682Z,99515.88
2022-08-25T16:35:23.766Z,99517.81
2022-08-25T16:37:51.680Z,99514.19
2022-08-25T16:40:22.893Z,99499.94
2022-08-25T16:42:50.981Z,99507.47
2022-08-25T16:45:19.037Z,99505.13
2022-08-25T16:47:46.779Z,99507.38
2022-08-25T16:50:15.664Z,99501.13
2022-08-25T16:53:00.732Z,99502.28
2022-08-25T16:55:39.049Z,99503.06
2022-08-25T16:58:07.389Z,99500.34
2022-08-25T17:00:35.417Z,99499.53
2022-08-25T17:03:05.132Z,99501.19
2022-08-25T17:05:33.494Z,99498.16
2022-08-25T17:08:18.745Z,99503.09
2022-08-25T17:10:46.693Z,99506.66
2022-08-25T17:13:14.494Z,99503.31
2022-08-25T17:15:42.396Z,99498.28
2022-08-25T17:18:11.082Z,99498.53
2022-08-25T17:20:39.145Z,99491.91
2022-08-25T17:23:12.370Z,99491.59
2022-08-25T17:25:41.271Z,99499.84
2022-08-25T17:28:12.157Z,99499.56
2022-08-25T17:30:40.491Z,99504.78
2022-08-25T17:33:08.273Z,99501.94
2022-08-25T17:35:36.111Z,99492.84
2022-08-25T17:38:03.918Z,99501.06
2022-08-25T17:40:34.409Z,99498.56
2022-08-25T17:43:02.809Z,99498.81
2022-08-25T17:45:30.448Z,99497.13
2022-08-25T17:47:59.213Z,99498.19
2022-08-25T17:50:26.954Z,99503.41
2022-08-25T17:52:54.645Z,99513.31
2022-08-25T17:55:23.647Z,99518.50
2022-08-25T17:57:51.439Z,99510.16
2022-08-25T18:00:19.361Z,99516.22
2022-08-25T18:02:48.637Z,99524.44
2022-08-25T18:05:16.773Z,99518.06
2022-08-25T18:07:44.529Z,99523.53
2022-08-25T18:10:12.919Z,99519.91
2022-08-25T18:12:40.623Z,99527.25
2022-08-25T18:15:10.605Z,99520.34
2022-08-25T18:17:38.421Z,99527.97
2022-08-25T18:20:08.080Z,99525.13
2022-08-25T18:22:36.991Z,99522.56
2022-08-25T18:25:06.331Z,99518.38
2022-08-25T18:27:34.516Z,99526.25
2022-08-25T18:30:02.318Z,99523.16
2022-08-25T18:32:31.102Z,99525.22
2022-08-25T18:34:58.764Z,99527.22
2022-08-25T18:37:44.391Z,99535.91
2022-08-25T18:40:24.046Z,99536.28
2022-08-25T18:42:51.825Z,99532.81
2022-08-25T18:45:19.955Z,99532.94
2022-08-25T18:47:48.063Z,99530.03
2022-08-25T18:50:15.831Z,99538.94
2022-08-25T18:52:43.542Z,99538.28
2022-08-25T18:55:12.549Z,99543.09
2022-08-25T18:57:42.687Z,99542.22
2022-08-25T19:00:10.547Z,99543.81
2022-08-25T19:02:38.377Z,99543.97
2022-08-25T19:05:07.721Z,99541.16
2022-08-25T19:07:40.315Z,99550.38
2022-08-25T19:10:09.016Z,99546.94
2022-08-25T19:12:36.967Z,99552.59
2022-08-25T19:15:05.023Z,99545.38
2022-08-25T19:17:37.438Z,99552.06
2022-08-25T19:20:11.173Z,99552.00
2022-08-25T19:22:42.163Z,99556.19
2022-08-25T19:25:10.048Z,99547.31
2022-08-25T19:27:38.489Z,99555.09
2022-08-25T19:30:06.179Z,99556.78
2022-08-25T19:32:33.972Z,99554.34
2022-08-25T19:35:02.397Z,99557.34
2022-08-25T19:37:30.220Z,99566.09
2022-08-25T19:39:58.574Z,99565.50
2022-08-25T19:42:35.015Z,99561.94
2022-08-25T19:45:05.289Z,99556.50
2022-08-25T19:47:33.302Z,99560.69
2022-08-25T19:50:01.502Z,99568.41
2022-08-25T19:52:29.229Z,99562.47
2022-08-25T19:54:57.918Z,99564.50
2022-08-25T19:57:28.161Z,99560.16
2022-08-25T20:00:10.312Z,99571.47
2022-08-25T20:02:38.077Z,99572.03
2022-08-25T20:05:07.328Z,99573.72
2022-08-25T20:07:35.349Z,99577.00
2022-08-25T20:10:03.484Z,99580.31
2022-08-25T20:12:31.751Z,99576.25
2022-08-25T20:14:59.632Z,99576.06
2022-08-25T20:17:28.525Z,99575.34
2022-08-25T20:19:56.485Z,99572.72
2022-08-25T20:22:26.293Z,99573.63
2022-08-25T20:24:57.426Z,99578.13
2022-08-25T20:27:26.329Z,99582.25
2022-08-25T20:29:54.118Z,99589.06
2022-08-25T20:32:22.862Z,99583.09
2022-08-25T20:34:51.418Z,99590.75
2022-08-25T20:37:19.633Z,99585.34
2022-08-25T20:39:47.676Z,99585.88
2022-08-25T20:42:16.108Z,99587.25
2022-08-25T20:44:43.802Z,99587.78
2022-08-25T20:47:11.552Z,99585.56
2022-08-25T20:49:39.820Z,99590.69
2022-08-25T20:52:07.875Z,99586.59
2022-08-25T20:54:35.881Z,99590.66
2022-08-25T20:57:03.708Z,99588.81
2022-08-25T20:59:35.709Z,99585.31
2022-08-25T21:02:03.448Z,99588.91
2022-08-25T21:04:31.456Z,99582.69
2022-08-25T21:07:00.376Z,99582.75
2022-08-25T21:09:28.664Z,99581.13
2022-08-25T21:11:56.433Z,99581.38
2022-08-25T21:14:24.367Z,99576.81
2022-08-25T21:16:52.688Z,99581.25
2022-08-25T21:19:26.349Z,99573.94
2022-08-25T21:21:59.485Z,99572.94
2022-08-25T21:24:27.479Z,99576.53
2022-08-25T21:26:56.120Z,99576.97
2022-08-25T21:29:23.892Z,99570.53
2022-08-25T21:31:51.974Z,99577.44
2022-08-25T21:34:19.817Z,99571.59
2022-08-25T21:36:48.600Z,99566.59
2022-08-25T21:39:17.148Z,99571.03
2022-08-25T21:41:45.689Z,99572.13
2022-08-25T21:44:13.761Z,99572.38
2022-08-25T21:46:41.670Z,99566.56
2022-08-25T21:49:21.959Z,99570.56
2022-08-25T21:51:59.226Z,99569.75
2022-08-25T21:54:28.732Z,99581.47
2022-08-25T21:56:58.703Z,99582.94
2022-08-25T21:59:26.376Z,99583.56
2022-08-25T22:01:54.146Z,99575.00
2022-08-25T22:04:21.838Z,99581.50
2022-08-25T22:06:51.251Z,99574.59
2022-08-25T22:09:19.177Z,99572.13
2022-08-25T22:11:46.965Z,99572.31
2022-08-25T22:14:14.679Z,99573.59
2022-08-25T22:16:42.576Z,99576.28
2022-08-25T22:19:10.686Z,99579.22
2022-08-25T22:21:38.406Z,99579.47
2022-08-25T22:24:06.202Z,99573.38
2022-08-25T22:26:34.464Z,99577.16
2022-08-25T22:29:02.592Z,99580.91
2022-08-25T22:31:32.596Z,99574.88
2022-08-25T22:34:00.314Z,99582.41
2022-08-25T22:36:30.560Z,99575.50
2022-08-25T22:38:58.656Z,99577.38
2022-08-25T22:41:26.539Z,99580.28
2022-08-25T22:43:56.872Z,99582.19
2022-08-25T22:46:25.581Z,99580.53
2022-08-25T22:48:55.841Z,99583.44
2022-08-25T22:51:23.555Z,99588.47
2022-08-25T22:53:51.220Z,99589.09
2022-08-25T22:56:18.917Z,99592.47
2022-08-25T22:58:51.477Z,99594.72
2022-08-25T23:01:19.786Z,99591.59
2022-08-25T23:03:47.769Z,99588.66
2022-08-25T23:06:18.672Z,99592.84
2022-08-25T23:08:48.793Z,99597.03
2022-08-25T23:11:16.522Z,99590.97
2022-08-25T23:13:44.163Z,99587.66
2022-08-25T23:16:11.921Z,99596.63
2022-08-25T23:18:43.611Z,99591.41
2022-08-25T23:21:40.922Z,99587.22
2022-08-25T23:24:09.001Z,99590.13
2022-08-25T23:26:41.967Z,99585.53
2022-08-25T23:29:17.960Z,99578.41
2022-08-25T23:31:46.833Z,99577.53
2022-08-25T23:34:15.537Z,99583.56
2022-08-25T23:36:44.107Z,99591.09
2022-08-25T23:39:12.054Z,99590.47
2022-08-25T23:41:39.907Z,99575.63
2022-08-25T23:44:11.483Z,99581.28
2022-08-25T23:46:39.490Z,99575.63
2022-08-25T23:49:08.172Z,99580.66
2022-08-25T23:51:38.253Z,99577.31
2022-08-25T23:54:06.127Z,99583.63
2022-08-25T23:56:33.773Z,99580.72
2022-08-25T23:59:02.659Z,99582.19
